Time;durP1;ratioP1;P1;durP2;ratioP2;P2;SDS_P1;SDS_P2;PMS_P1;PMS_P2;Temp;Humidity;BMP_temperature;BMP_pressure;BME280_temperature;BME280_humidity;BME280_pressure;Samples;Min_cycle;Max_cycle;Signal;HPM_P1;HPM_P2
2021/04/07 00:01:32;;;;;;;;;;;-1.50;96.90;;;;;;5054541;28;19936;-68
2021/04/07 00:03:58;;;;;;;;;;;-1.60;96.40;;;;;;5048429;28;20337;-69
2021/04/07 00:06:23;;;;;;;;;;;-1.70;96.60;;;;;;5047351;28;19936;-68
2021/04/07 00:08:50;;;;;;;;;;;-1.70;96.30;;;;;;5042657;28;19924;-68
2021/04/07 00:11:16;;;;;;;;;;;-1.80;96.50;;;;;;5057171;28;19916;-68
2021/04/07 00:13:43;;;;;;;;;;;-1.90;96.30;;;;;;5052989;28;19958;-68
2021/04/07 00:16:08;;;;;;;;;;;-1.90;96.70;;;;;;5056377;28;19925;-69
2021/04/07 00:18:34;;;;;;;;;;;-1.90;96.70;;;;;;5055579;28;19917;-68
2021/04/07 00:20:59;;;;;;;;;;;-1.90;96.90;;;;;;5056730;28;20268;-67
2021/04/07 00:23:25;;;;;;;;;;;-1.90;96.70;;;;;;5048690;28;20332;-68
2021/04/07 00:25:50;;;;;;;;;;;-2.00;96.60;;;;;;5056116;28;20360;-68
2021/04/07 00:28:20;;;;;;;;;;;-2.00;96.70;;;;;;5044326;28;19924;-68
2021/04/07 00:30:46;;;;;;;;;;;-2.00;96.60;;;;;;5056383;28;19919;-68
2021/04/07 00:33:12;;;;;;;;;;;-2.00;96.60;;;;;;5044646;28;20008;-68
2021/04/07 00:35:37;;;;;;;;;;;-2.00;96.90;;;;;;5048706;28;19912;-68
2021/04/07 00:38:03;;;;;;;;;;;-2.00;96.70;;;;;;5047829;28;20297;-68
2021/04/07 00:40:28;;;;;;;;;;;-2.00;96.70;;;;;;5046801;28;19955;-67
2021/04/07 00:42:54;;;;;;;;;;;-2.00;96.90;;;;;;5052585;28;20313;-68
2021/04/07 00:45:21;;;;;;;;;;;-2.00;97.00;;;;;;5059550;28;19963;-67
2021/04/07 00:47:47;;;;;;;;;;;-2.00;96.90;;;;;;5050807;28;19917;-66
2021/04/07 00:50:17;;;;;;;;;;;-2.00;96.90;;;;;;5051878;28;19991;-67
2021/04/07 00:52:42;;;;;;;;;;;-2.00;96.70;;;;;;5053990;28;19955;-68
2021/04/07 00:55:08;;;;;;;;;;;-2.00;96.70;;;;;;5054521;28;19952;-68
2021/04/07 00:57:34;;;;;;;;;;;-2.00;96.90;;;;;;5056142;28;19916;-67
2021/04/07 01:00:00;;;;;;;;;;;-2.00;97.00;;;;;;5056048;28;20221;-67
2021/04/07 01:02:25;;;;;;;;;;;-2.00;97.10;;;;;;5053090;28;20321;-68
2021/04/07 01:04:52;;;;;;;;;;;-2.00;97.10;;;;;;5052185;28;19913;-68
2021/04/07 01:07:17;;;;;;;;;;;-2.00;97.20;;;;;;5054225;28;20051;-67
2021/04/07 01:09:43;;;;;;;;;;;-2.00;97.30;;;;;;5056421;28;20009;-68
2021/04/07 01:12:09;;;;;;;;;;;-2.00;97.20;;;;;;5052078;28;20314;-68
2021/04/07 01:14:36;;;;;;;;;;;-2.00;97.20;;;;;;5059645;28;19916;-66
2021/04/07 01:17:02;;;;;;;;;;;-2.00;97.40;;;;;;5067375;28;19936;-67
2021/04/07 01:19:27;;;;;;;;;;;-2.00;97.10;;;;;;5045536;28;19986;-68
2021/04/07 01:21:54;;;;;;;;;;;-2.00;97.10;;;;;;5055775;28;19912;-68
2021/04/07 01:24:20;;;;;;;;;;;-2.00;97.20;;;;;;5044481;28;19927;-68
2021/04/07 01:26:46;;;;;;;;;;;-2.00;97.20;;;;;;5053949;28;20011;-68
2021/04/07 01:29:12;;;;;;;;;;;-2.00;97.30;;;;;;5054797;28;20327;-68
2021/04/07 01:31:47;;;;;;;;;;;-2.10;97.60;;;;;;5051864;28;20032;-69
2021/04/07 01:34:16;;;;;;;;;;;-2.10;97.70;;;;;;5044208;28;19913;-66
2021/04/07 01:36:42;;;;;;;;;;;-2.10;97.50;;;;;;5050874;28;19971;-68
2021/04/07 01:39:07;;;;;;;;;;;-2.10;97.70;;;;;;5052266;28;19920;-66
2021/04/07 01:41:33;;;;;;;;;;;-2.10;97.40;;;;;;5052456;28;20285;-66
2021/04/07 01:43:59;;;;;;;;;;;-2.10;97.30;;;;;;5046026;28;19912;-67
2021/04/07 01:46:25;;;;;;;;;;;-2.10;97.30;;;;;;5051114;28;20314;-67
2021/04/07 01:48:50;;;;;;;;;;;-2.10;97.10;;;;;;5051704;28;19925;-67
2021/04/07 01:51:16;;;;;;;;;;;-2.20;97.10;;;;;;5041733;28;20019;-68
2021/04/07 01:53:42;;;;;;;;;;;-2.20;97.00;;;;;;5048251;28;19967;-68
2021/04/07 01:56:09;;;;;;;;;;;-2.30;96.90;;;;;;5043630;28;19917;-68
2021/04/07 01:58:35;;;;;;;;;;;-2.30;97.20;;;;;;5049068;28;19963;-68
2021/04/07 02:01:00;;;;;;;;;;;-2.30;97.30;;;;;;5054801;28;19944;-67
2021/04/07 02:03:27;;;;;;;;;;;-2.40;97.30;;;;;;5059156;28;19916;-68
2021/04/07 02:05:52;;;;;;;;;;;-2.50;97.70;;;;;;5047885;28;19946;-67
2021/04/07 02:08:18;;;;;;;;;;;-2.50;97.50;;;;;;5050214;28;19924;-67
2021/04/07 02:10:43;;;;;;;;;;;-2.60;97.20;;;;;;5044218;28;19917;-69
2021/04/07 02:13:09;;;;;;;;;;;-2.60;97.30;;;;;;5045489;28;20255;-67
2021/04/07 02:15:37;;;;;;;;;;;-2.60;97.30;;;;;;5054565;28;20020;-68
2021/04/07 02:18:03;;;;;;;;;;;-2.60;97.40;;;;;;5039643;28;19913;-67
2021/04/07 02:20:28;;;;;;;;;;;-2.60;97.50;;;;;;5043597;28;20011;-66
2021/04/07 02:22:54;;;;;;;;;;;-2.60;97.50;;;;;;5051673;28;20031;-67
2021/04/07 02:25:19;;;;;;;;;;;-2.50;97.60;;;;;;5052769;28;19912;-66
2021/04/07 02:27:45;;;;;;;;;;;-2.50;97.50;;;;;;5054177;28;19916;-66
2021/04/07 02:30:12;;;;;;;;;;;-2.50;97.50;;;;;;5045801;28;19913;-68
2021/04/07 02:32:38;;;;;;;;;;;-2.50;97.50;;;;;;5051440;28;19921;-68
2021/04/07 02:35:04;;;;;;;;;;;-2.40;97.70;;;;;;5052459;28;19917;-68
2021/04/07 02:37:30;;;;;;;;;;;-2.40;97.70;;;;;;5045620;28;19917;-68
2021/04/07 02:39:58;;;;;;;;;;;-2.40;97.70;;;;;;5049926;28;19940;-68
2021/04/07 02:42:24;;;;;;;;;;;-2.40;97.50;;;;;;5051673;28;19920;-67
2021/04/07 02:44:49;;;;;;;;;;;-2.30;97.40;;;;;;5051698;28;19913;-68
2021/04/07 02:47:15;;;;;;;;;;;-2.30;97.40;;;;;;5048726;28;19916;-68
2021/04/07 02:49:40;;;;;;;;;;;-2.30;97.70;;;;;;5054620;28;20012;-68
2021/04/07 02:52:06;;;;;;;;;;;-2.30;97.50;;;;;;5043635;28;19987;-68
2021/04/07 02:54:32;;;;;;;;;;;-2.30;97.60;;;;;;5036809;28;19944;-68
2021/04/07 02:56:58;;;;;;;;;;;-2.30;97.40;;;;;;5045339;28;19920;-67
2021/04/07 02:59:23;;;;;;;;;;;-2.30;97.90;;;;;;5055666;28;19909;-68
2021/04/07 03:01:49;;;;;;;;;;;-2.30;97.40;;;;;;5048913;28;19960;-69
2021/04/07 03:04:15;;;;;;;;;;;-2.30;97.50;;;;;;5057550;28;19928;-68
2021/04/07 03:06:41;;;;;;;;;;;-2.30;97.50;;;;;;5053655;28;19936;-68
2021/04/07 03:09:06;;;;;;;;;;;-2.40;97.50;;;;;;5053897;28;20320;-67
2021/04/07 03:11:34;;;;;;;;;;;-2.40;97.70;;;;;;5055697;28;19920;-67
2021/04/07 03:13:59;;;;;;;;;;;-2.30;97.90;;;;;;5055163;28;19920;-69
2021/04/07 03:16:25;;;;;;;;;;;-2.40;97.50;;;;;;5051843;28;20314;-69
2021/04/07 03:18:50;;;;;;;;;;;-2.30;97.40;;;;;;5051959;28;20257;-68
2021/04/07 03:21:16;;;;;;;;;;;-2.30;97.60;;;;;;5050726;28;20304;-68
2021/04/07 03:23:41;;;;;;;;;;;-2.30;97.60;;;;;;5050128;28;19967;-68
2021/04/07 03:26:07;;;;;;;;;;;-2.30;98.00;;;;;;5054457;28;19939;-67
2021/04/07 03:28:32;;;;;;;;;;;-2.30;97.50;;;;;;5050772;28;19925;-67
2021/04/07 03:30:58;;;;;;;;;;;-2.30;97.70;;;;;;5057336;28;19913;-67
2021/04/07 03:33:28;;;;;;;;;;;-2.30;97.80;;;;;;5055979;28;20365;-68
2021/04/07 03:35:53;;;;;;;;;;;-2.40;97.30;;;;;;5056328;28;19924;-68
2021/04/07 03:38:19;;;;;;;;;;;-2.40;97.40;;;;;;5055952;28;19913;-68
2021/04/07 03:40:47;;;;;;;;;;;-2.30;97.50;;;;;;5053499;28;19996;-67
2021/04/07 03:43:14;;;;;;;;;;;-2.30;97.40;;;;;;5053440;28;19913;-68
2021/04/07 03:45:46;;;;;;;;;;;-2.30;97.60;;;;;;5058344;28;19983;-68
2021/04/07 03:48:13;;;;;;;;;;;-2.30;97.40;;;;;;5063131;28;19955;-67
2021/04/07 03:50:39;;;;;;;;;;;-2.30;97.50;;;;;;5061633;28;19913;-69
2021/04/07 03:53:05;;;;;;;;;;;-2.30;97.40;;;;;;5048326;28;19912;-67
2021/04/07 03:55:30;;;;;;;;;;;-2.40;97.50;;;;;;5053102;28;19912;-67
2021/04/07 03:57:56;;;;;;;;;;;-2.40;97.40;;;;;;5056101;28;19920;-68
2021/04/07 04:00:22;;;;;;;;;;;-2.40;97.40;;;;;;5057154;28;20217;-68
2021/04/07 04:02:47;;;;;;;;;;;-2.40;97.60;;;;;;5054790;28;20206;-68
2021/04/07 04:05:13;;;;;;;;;;;-2.40;97.60;;;;;;5054701;28;20317;-69
2021/04/07 04:07:38;;;;;;;;;;;-2.40;97.50;;;;;;5044259;28;19919;-69
2021/04/07 04:10:04;;;;;;;;;;;-2.40;97.60;;;;;;5044981;28;19955;-67
2021/04/07 04:12:30;;;;;;;;;;;-2.40;97.50;;;;;;5054667;28;19952;-68
2021/04/07 04:14:55;;;;;;;;;;;-2.40;97.60;;;;;;5051319;28;19921;-69
2021/04/07 04:17:21;;;;;;;;;;;-2.30;97.60;;;;;;5055964;28;19913;-68
2021/04/07 04:19:46;;;;;;;;;;;-2.30;97.70;;;;;;5050614;28;19913;-68
2021/04/07 04:22:12;;;;;;;;;;;-2.30;97.40;;;;;;5054064;28;20213;-67
2021/04/07 04:24:39;;;;;;;;;;;-2.30;97.40;;;;;;5056714;28;20226;-69
2021/04/07 04:27:05;;;;;;;;;;;-2.30;97.40;;;;;;5044295;28;19909;-67
2021/04/07 04:29:30;;;;;;;;;;;-2.30;97.10;;;;;;5054513;28;19920;-67
2021/04/07 04:31:56;;;;;;;;;;;-2.30;96.80;;;;;;5052448;28;20361;-68
2021/04/07 04:34:21;;;;;;;;;;;-2.40;96.90;;;;;;5055759;28;19913;-67
2021/04/07 04:36:47;;;;;;;;;;;-2.60;96.70;;;;;;5056390;28;19917;-66
2021/04/07 04:39:12;;;;;;;;;;;-2.80;97.10;;;;;;5053189;28;19957;-66
2021/04/07 04:41:38;;;;;;;;;;;-2.90;97.00;;;;;;5054119;28;20268;-66
2021/04/07 04:44:06;;;;;;;;;;;-2.90;97.10;;;;;;5048370;28;19952;-68
2021/04/07 04:46:32;;;;;;;;;;;-2.90;96.80;;;;;;5046580;28;19923;-68
2021/04/07 04:48:57;;;;;;;;;;;-2.90;96.90;;;;;;5054974;28;20003;-67
2021/04/07 04:51:23;;;;;;;;;;;-2.90;96.80;;;;;;5049338;28;19913;-67
2021/04/07 04:53:48;;;;;;;;;;;-2.90;96.80;;;;;;5048643;28;19921;-68
2021/04/07 04:56:14;;;;;;;;;;;-2.80;96.90;;;;;;5042689;28;19915;-67
2021/04/07 04:58:39;;;;;;;;;;;-2.80;97.00;;;;;;5055066;28;20007;-67
2021/04/07 05:01:05;;;;;;;;;;;-2.90;97.00;;;;;;5054550;28;19909;-67
2021/04/07 05:03:31;;;;;;;;;;;-2.80;97.30;;;;;;5052463;28;19913;-67
2021/04/07 05:05:56;;;;;;;;;;;-2.80;97.30;;;;;;5051334;28;20359;-67
2021/04/07 05:08:22;;;;;;;;;;;-2.80;97.20;;;;;;5048752;28;20249;-68
2021/04/07 05:10:48;;;;;;;;;;;-2.80;97.10;;;;;;5054696;28;19908;-67
2021/04/07 05:13:14;;;;;;;;;;;-2.70;97.00;;;;;;5052768;28;19913;-66
2021/04/07 05:15:39;;;;;;;;;;;-2.70;97.00;;;;;;5041603;28;20803;-66
2021/04/07 05:18:14;;;;;;;;;;;-2.70;97.20;;;;;;5054348;28;19966;-66
2021/04/07 05:20:40;;;;;;;;;;;-2.60;97.10;;;;;;5049817;28;19924;-67
2021/04/07 05:23:06;;;;;;;;;;;-2.60;97.20;;;;;;5040181;28;19917;-69
2021/04/07 05:25:41;;;;;;;;;;;-2.60;97.20;;;;;;5043029;28;19917;-68
2021/04/07 05:28:07;;;;;;;;;;;-2.60;97.40;;;;;;5052241;28;20509;-68
2021/04/07 05:33:21;;;;;;;;;;;-2.50;97.40;;;;;;5054267;28;20401;-68
2021/04/07 05:35:47;;;;;;;;;;;-2.50;97.30;;;;;;5051607;28;19920;-68
2021/04/07 05:38:13;;;;;;;;;;;-2.40;97.50;;;;;;5053985;28;19913;-70
2021/04/07 05:40:41;;;;;;;;;;;-2.40;97.70;;;;;;5051153;28;20218;-68
2021/04/07 05:43:07;;;;;;;;;;;-2.40;97.60;;;;;;5044712;28;19908;-68
2021/04/07 05:45:32;;;;;;;;;;;-2.40;97.50;;;;;;5055232;28;20216;-68
2021/04/07 05:47:58;;;;;;;;;;;-2.30;97.60;;;;;;5053314;28;19960;-69
2021/04/07 05:50:26;;;;;;;;;;;-2.20;97.40;;;;;;5053327;28;19995;-68
2021/04/07 05:52:52;;;;;;;;;;;-2.20;98.00;;;;;;5049506;28;20051;-70
2021/04/07 05:55:18;;;;;;;;;;;-2.20;97.70;;;;;;5049744;28;19943;-68
2021/04/07 05:57:44;;;;;;;;;;;-2.10;98.00;;;;;;5055307;28;19988;-68
2021/04/07 06:00:13;;;;;;;;;;;-2.10;97.90;;;;;;5054797;28;19951;-68
2021/04/07 06:02:38;;;;;;;;;;;-2.00;98.00;;;;;;5035742;28;19910;-68
2021/04/07 06:05:04;;;;;;;;;;;-2.00;97.80;;;;;;5045910;28;20288;-68
2021/04/07 06:07:29;;;;;;;;;;;-1.90;97.80;;;;;;5050600;28;20336;-68
2021/04/07 06:09:55;;;;;;;;;;;-1.90;97.90;;;;;;5066241;28;20194;-67
2021/04/07 06:12:20;;;;;;;;;;;-1.80;98.00;;;;;;5041034;28;19913;-68
2021/04/07 06:14:46;;;;;;;;;;;-1.70;98.00;;;;;;5054653;28;19916;-68
2021/04/07 06:17:11;;;;;;;;;;;-1.60;98.00;;;;;;5053435;28;19913;-69
2021/04/07 06:19:37;;;;;;;;;;;-1.60;97.70;;;;;;5054452;28;19913;-68
2021/04/07 06:22:03;;;;;;;;;;;-1.50;97.40;;;;;;5054191;28;19956;-68
2021/04/07 06:24:28;;;;;;;;;;;-1.40;97.90;;;;;;5053406;28;19927;-65
2021/04/07 06:26:54;;;;;;;;;;;-1.50;97.40;;;;;;5052710;28;19913;-66
2021/04/07 06:29:19;;;;;;;;;;;-1.50;98.00;;;;;;5043355;28;19916;-68
2021/04/07 06:31:45;;;;;;;;;;;-1.50;96.80;;;;;;5050954;28;20316;-67
2021/04/07 06:34:13;;;;;;;;;;;-1.40;96.80;;;;;;5049747;28;19921;-69
2021/04/07 06:36:38;;;;;;;;;;;-1.40;96.90;;;;;;5057346;28;19913;-68
2021/04/07 06:39:04;;;;;;;;;;;-1.40;96.30;;;;;;5046068;28;20007;-68
2021/04/07 06:41:50;;;;;;;;;;;-1.50;94.50;;;;;;5056269;28;20385;-67
2021/04/07 06:44:17;;;;;;;;;;;-1.60;93.40;;;;;;5038951;28;20048;-68
2021/04/07 06:46:46;;;;;;;;;;;-1.60;93.30;;;;;;5044367;28;20041;-67
2021/04/07 06:49:12;;;;;;;;;;;-1.50;92.80;;;;;;5050239;28;19924;-67
2021/04/07 06:51:39;;;;;;;;;;;-1.50;92.40;;;;;;5056236;28;19920;-69
2021/04/07 06:54:05;;;;;;;;;;;-1.40;92.40;;;;;;5048927;28;19913;-68
2021/04/07 06:56:33;;;;;;;;;;;-1.20;92.50;;;;;;5056970;28;19913;-68
2021/04/07 06:58:58;;;;;;;;;;;-1.10;92.10;;;;;;5044826;28;19921;-68
2021/04/07 07:01:24;;;;;;;;;;;-1.10;91.00;;;;;;5045700;28;20500;-67
2021/04/07 07:03:50;;;;;;;;;;;-1.10;91.40;;;;;;5048747;28;19917;-69
2021/04/07 07:06:17;;;;;;;;;;;-1.10;92.00;;;;;;5058289;28;20294;-68
2021/04/07 07:08:48;;;;;;;;;;;-1.00;92.60;;;;;;5041071;28;19925;-68
2021/04/07 07:11:15;;;;;;;;;;;-0.90;91.20;;;;;;5048989;28;19998;-67
2021/04/07 07:13:41;;;;;;;;;;;-1.10;91.20;;;;;;5040384;28;21040;-69
2021/04/07 07:16:06;;;;;;;;;;;-1.00;92.20;;;;;;5037971;28;20392;-68
2021/04/07 07:18:32;;;;;;;;;;;-0.90;90.70;;;;;;5041534;28;19916;-67
2021/04/07 07:20:58;;;;;;;;;;;-1.00;91.00;;;;;;5053725;28;19912;-67
2021/04/07 07:23:24;;;;;;;;;;;-0.90;90.70;;;;;;5056640;28;19917;-67
2021/04/07 07:25:55;;;;;;;;;;;-0.70;90.50;;;;;;5044853;28;19944;-68
2021/04/07 07:28:26;;;;;;;;;;;-0.50;89.50;;;;;;5076314;28;19921;-68
2021/04/07 07:30:52;;;;;;;;;;;-0.20;89.10;;;;;;5057006;28;20313;-68
2021/04/07 07:33:22;;;;;;;;;;;0.30;87.30;;;;;;5052390;28;19913;-68
2021/04/07 07:35:49;;;;;;;;;;;0.40;85.60;;;;;;5086579;28;19968;-67
2021/04/07 07:38:25;;;;;;;;;;;0.70;85.60;;;;;;5051120;28;19921;-68
2021/04/07 07:40:59;;;;;;;;;;;0.70;83.20;;;;;;5082667;28;19999;-68
2021/04/07 07:43:25;;;;;;;;;;;0.60;84.10;;;;;;5048505;28;20316;-68
2021/04/07 07:45:50;;;;;;;;;;;0.30;84.60;;;;;;5057050;28;20012;-67
2021/04/07 07:48:20;;;;;;;;;;;0.20;84.90;;;;;;5052641;28;20252;-67
2021/04/07 07:50:47;;;;;;;;;;;-0.10;84.50;;;;;;5055930;28;19920;-68
2021/04/07 07:53:20;;;;;;;;;;;-0.40;86.90;;;;;;5047159;28;19917;-67
2021/04/07 07:55:48;;;;;;;;;;;-0.50;88.30;;;;;;5055799;28;19913;-68
2021/04/07 07:58:14;;;;;;;;;;;-0.40;88.10;;;;;;5040006;28;20020;-67
2021/04/07 08:00:39;;;;;;;;;;;-0.40;87.50;;;;;;5039088;28;20083;-68
2021/04/07 08:03:12;;;;;;;;;;;-0.30;87.60;;;;;;5041526;28;19916;-68
2021/04/07 08:05:38;;;;;;;;;;;-0.30;87.80;;;;;;5047450;28;20768;-66
2021/04/07 08:08:05;;;;;;;;;;;-0.50;88.30;;;;;;5050008;28;20019;-67
2021/04/07 08:10:36;;;;;;;;;;;-0.70;87.80;;;;;;5037562;28;19913;-67
2021/04/07 08:13:02;;;;;;;;;;;-0.70;88.40;;;;;;5040794;28;19920;-66
2021/04/07 08:15:29;;;;;;;;;;;-0.60;88.50;;;;;;5055554;28;19972;-69
2021/04/07 08:17:54;;;;;;;;;;;-0.50;88.30;;;;;;5051862;28;20306;-69
2021/04/07 08:20:21;;;;;;;;;;;-0.60;88.60;;;;;;5047466;28;19957;-68
2021/04/07 08:22:50;;;;;;;;;;;-0.50;88.70;;;;;;5048442;28;19917;-68
2021/04/07 08:25:16;;;;;;;;;;;-0.40;87.40;;;;;;5049931;28;19921;-68
2021/04/07 08:27:42;;;;;;;;;;;-0.40;86.30;;;;;;5041742;28;19928;-67
2021/04/07 08:30:09;;;;;;;;;;;-0.40;87.00;;;;;;5035283;28;20332;-67
2021/04/07 08:32:36;;;;;;;;;;;0.00;87.00;;;;;;5051012;28;19913;-68
2021/04/07 08:35:06;;;;;;;;;;;0.50;85.30;;;;;;5049878;28;19920;-67
2021/04/07 08:37:33;;;;;;;;;;;0.60;83.30;;;;;;5048343;28;19946;-68
2021/04/07 08:40:14;;;;;;;;;;;0.30;83.20;;;;;;5045805;28;19913;-67
2021/04/07 08:42:40;;;;;;;;;;;0.10;83.90;;;;;;5035613;28;19999;-68
2021/04/07 08:45:07;;;;;;;;;;;0.00;84.10;;;;;;5037126;28;19948;-68
2021/04/07 08:47:44;;;;;;;;;;;-0.20;85.20;;;;;;5049612;28;19917;-67
2021/04/07 08:50:13;;;;;;;;;;;-0.30;85.50;;;;;;5042931;28;19917;-68
2021/04/07 08:52:47;;;;;;;;;;;-0.40;85.30;;;;;;5041033;28;19913;-67
2021/04/07 08:55:15;;;;;;;;;;;-0.40;85.00;;;;;;5042758;28;19920;-67
2021/04/07 08:58:05;;;;;;;;;;;-0.50;85.10;;;;;;5041049;28;19913;-67
2021/04/07 09:00:33;;;;;;;;;;;-0.50;86.30;;;;;;5047602;28;20289;-68
2021/04/07 09:03:11;;;;;;;;;;;-0.40;87.60;;;;;;5043319;28;19913;-66
2021/04/07 09:05:37;;;;;;;;;;;-0.50;89.60;;;;;;5042274;28;20689;-67
2021/04/07 09:08:05;;;;;;;;;;;-0.20;88.10;;;;;;5084588;28;19943;-68
2021/04/07 09:10:41;;;;;;;;;;;0.20;86.40;;;;;;5053688;28;19912;-67
2021/04/07 09:13:11;;;;;;;;;;;0.50;83.30;;;;;;5046007;28;19913;-67
2021/04/07 09:16:01;;;;;;;;;;;0.90;81.60;;;;;;5055240;28;20497;-68
2021/04/07 09:18:39;;;;;;;;;;;1.00;81.30;;;;;;5053139;28;20291;-67
2021/04/07 09:21:25;;;;;;;;;;;0.90;81.20;;;;;;5050241;28;19917;-67
2021/04/07 09:23:55;;;;;;;;;;;0.50;82.20;;;;;;5052297;28;19917;-67
2021/04/07 09:26:22;;;;;;;;;;;0.00;83.60;;;;;;5051411;28;19975;-68
2021/04/07 09:28:51;;;;;;;;;;;-0.20;85.40;;;;;;5053916;28;19917;-68
2021/04/07 09:31:17;;;;;;;;;;;-0.20;85.60;;;;;;5054626;28;19924;-67
2021/04/07 09:33:44;;;;;;;;;;;-0.10;85.80;;;;;;5047323;28;19921;-67
2021/04/07 09:36:10;;;;;;;;;;;-0.10;87.50;;;;;;5048182;28;19920;-68
2021/04/07 09:38:37;;;;;;;;;;;0.00;87.10;;;;;;5050497;28;20028;-67
2021/04/07 09:41:07;;;;;;;;;;;0.10;86.10;;;;;;5049073;28;20276;-68
2021/04/07 09:43:33;;;;;;;;;;;0.00;86.40;;;;;;5080682;28;19999;-67
2021/04/07 09:46:02;;;;;;;;;;;0.10;87.20;;;;;;5040119;28;19952;-68
2021/04/07 09:48:42;;;;;;;;;;;0.30;88.30;;;;;;5063100;28;19917;-67
2021/04/07 09:51:20;;;;;;;;;;;0.00;88.50;;;;;;5044966;28;19913;-67
2021/04/07 09:53:46;;;;;;;;;;;-0.10;90.30;;;;;;5035633;28;19921;-67
2021/04/07 09:56:12;;;;;;;;;;;-0.10;90.90;;;;;;5052205;28;20004;-68
2021/04/07 09:58:41;;;;;;;;;;;0.00;91.00;;;;;;5045724;28;20119;-67
2021/04/07 10:01:07;;;;;;;;;;;0.30;88.10;;;;;;5045581;28;20008;-68
2021/04/07 10:03:33;;;;;;;;;;;0.60;87.20;;;;;;5042544;28;19940;-68
2021/04/07 10:05:58;;;;;;;;;;;1.10;84.90;;;;;;5051475;28;20293;-68
2021/04/07 10:08:26;;;;;;;;;;;0.70;84.60;;;;;;5045807;28;19913;-68
2021/04/07 10:10:54;;;;;;;;;;;0.80;85.70;;;;;;5057062;28;19913;-67
2021/04/07 10:13:20;;;;;;;;;;;1.00;85.60;;;;;;5049829;28;20004;-67
2021/04/07 10:15:46;;;;;;;;;;;1.10;86.20;;;;;;5042805;28;20059;-68
2021/04/07 10:18:11;;;;;;;;;;;1.30;84.20;;;;;;5054216;28;20386;-68
2021/04/07 10:20:37;;;;;;;;;;;1.20;84.20;;;;;;5049675;28;19927;-68
2021/04/07 10:23:08;;;;;;;;;;;1.30;82.90;;;;;;5047529;28;19915;-68
2021/04/07 10:25:33;;;;;;;;;;;1.50;83.30;;;;;;5053772;28;19956;-71
2021/04/07 10:27:59;;;;;;;;;;;1.50;82.90;;;;;;5052972;28;19961;-69
2021/04/07 10:30:26;;;;;;;;;;;1.50;82.20;;;;;;5058105;28;19912;-69
2021/04/07 10:32:55;;;;;;;;;;;1.00;83.00;;;;;;5055224;28;19913;-69
2021/04/07 10:35:32;;;;;;;;;;;0.70;86.00;;;;;;5054391;28;19920;-69
2021/04/07 10:38:18;;;;;;;;;;;0.70;86.90;;;;;;5050849;28;20007;-68
2021/04/07 10:40:47;;;;;;;;;;;0.80;87.70;;;;;;5049572;28;19927;-69
2021/04/07 10:43:13;;;;;;;;;;;0.40;87.10;;;;;;5051377;28;20313;-68
2021/04/07 10:45:39;;;;;;;;;;;0.30;88.60;;;;;;5054780;28;19921;-70
2021/04/07 10:48:05;;;;;;;;;;;0.50;88.70;;;;;;5056371;28;19917;-68
2021/04/07 10:50:31;;;;;;;;;;;0.40;87.60;;;;;;5048633;28;19912;-68
2021/04/07 10:52:57;;;;;;;;;;;0.40;87.20;;;;;;5052862;28;19979;-69
2021/04/07 10:55:27;;;;;;;;;;;0.80;86.00;;;;;;5053108;28;19920;-68
2021/04/07 10:57:55;;;;;;;;;;;0.90;84.80;;;;;;5052369;28;19921;-70
2021/04/07 11:00:37;;;;;;;;;;;1.10;83.70;;;;;;5088445;28;19959;-68
2021/04/07 11:03:03;;;;;;;;;;;1.10;83.40;;;;;;5046790;28;19913;-67
2021/04/07 11:05:45;;;;;;;;;;;1.20;83.20;;;;;;5051349;28;19921;-67
2021/04/07 11:08:12;;;;;;;;;;;1.20;82.70;;;;;;5051053;28;19917;-68
2021/04/07 11:10:39;;;;;;;;;;;1.30;82.90;;;;;;5089458;28;19959;-69
2021/04/07 11:13:05;;;;;;;;;;;1.70;81.40;;;;;;5051732;28;20319;-70
2021/04/07 11:15:31;;;;;;;;;;;2.30;82.10;;;;;;5050688;28;19921;-70
2021/04/07 11:17:56;;;;;;;;;;;2.60;79.60;;;;;;5056247;28;19919;-70
2021/04/07 11:20:23;;;;;;;;;;;2.40;77.30;;;;;;5054568;28;20225;-69
2021/04/07 11:22:48;;;;;;;;;;;2.60;78.10;;;;;;5055419;28;20007;-70
2021/04/07 11:25:14;;;;;;;;;;;3.10;77.60;;;;;;5047948;28;20035;-70
2021/04/07 11:27:40;;;;;;;;;;;3.10;76.70;;;;;;5058749;28;19912;-70
2021/04/07 11:30:06;;;;;;;;;;;2.90;77.30;;;;;;5055994;28;19959;-69
2021/04/07 11:32:35;;;;;;;;;;;2.50;76.70;;;;;;5073289;28;19913;-69
2021/04/07 11:35:25;;;;;;;;;;;2.10;77.70;;;;;;5054370;28;19919;-69
2021/04/07 11:38:00;;;;;;;;;;;2.10;77.70;;;;;;5049221;28;19912;-70
2021/04/07 11:43:18;;;;;;;;;;;1.90;77.70;;;;;;5034021;28;20398;-69
2021/04/07 11:45:48;;;;;;;;;;;2.50;77.80;;;;;;5053001;28;20306;-70
2021/04/07 11:48:14;;;;;;;;;;;2.40;76.30;;;;;;5050402;28;19932;-69
2021/04/07 11:50:39;;;;;;;;;;;2.50;75.90;;;;;;5054128;28;19913;-70
2021/04/07 11:53:05;;;;;;;;;;;2.70;75.20;;;;;;5047399;28;19925;-69
2021/04/07 11:55:30;;;;;;;;;;;3.00;73.70;;;;;;5031955;28;20019;-68
2021/04/07 11:57:56;;;;;;;;;;;2.80;73.90;;;;;;5034659;28;20237;-68
2021/04/07 12:00:23;;;;;;;;;;;2.70;74.00;;;;;;5039866;28;20045;-69
2021/04/07 12:02:49;;;;;;;;;;;2.70;74.60;;;;;;5047463;28;19964;-69
2021/04/07 12:05:17;;;;;;;;;;;2.90;74.90;;;;;;5055413;28;19964;-70
2021/04/07 12:07:43;;;;;;;;;;;2.70;75.60;;;;;;5056763;28;19908;-70
2021/04/07 12:10:09;;;;;;;;;;;2.30;76.10;;;;;;5034805;28;19987;-68
2021/04/07 12:12:34;;;;;;;;;;;2.20;77.20;;;;;;5038052;28;19917;-69
2021/04/07 12:15:00;;;;;;;;;;;2.40;76.40;;;;;;5056051;28;19925;-70
2021/04/07 12:17:26;;;;;;;;;;;2.60;76.30;;;;;;5038939;28;19913;-68
2021/04/07 12:19:51;;;;;;;;;;;2.50;74.70;;;;;;5055956;28;20298;-70
2021/04/07 12:22:17;;;;;;;;;;;2.60;74.60;;;;;;5055264;28;20041;-68
2021/04/07 12:24:43;;;;;;;;;;;2.60;74.30;;;;;;5056674;28;19917;-68
2021/04/07 12:27:08;;;;;;;;;;;2.60;74.00;;;;;;5054845;28;19912;-69
2021/04/07 12:29:34;;;;;;;;;;;2.30;75.40;;;;;;5052979;28;19916;-68
2021/04/07 12:32:00;;;;;;;;;;;2.10;75.70;;;;;;5055897;28;19955;-69
2021/04/07 12:34:26;;;;;;;;;;;2.00;76.90;;;;;;5055420;28;20277;-68
2021/04/07 12:36:58;;;;;;;;;;;2.00;78.20;;;;;;5042029;28;19924;-68
2021/04/07 12:39:25;;;;;;;;;;;1.90;77.30;;;;;;5056492;28;19917;-69
2021/04/07 12:42:01;;;;;;;;;;;1.60;78.50;;;;;;5049907;28;21583;-69
2021/04/07 12:44:26;;;;;;;;;;;1.60;78.50;;;;;;5057257;28;20207;-69
2021/04/07 12:46:52;;;;;;;;;;;1.50;79.10;;;;;;5052932;28;19917;-69
2021/04/07 12:49:18;;;;;;;;;;;1.60;79.00;;;;;;5054845;28;20012;-69
2021/04/07 12:51:43;;;;;;;;;;;1.90;79.50;;;;;;5055292;28;19912;-68
2021/04/07 12:54:13;;;;;;;;;;;2.10;78.60;;;;;;5052097;28;20336;-69
2021/04/07 12:56:40;;;;;;;;;;;2.20;77.30;;;;;;5054697;28;20329;-69
2021/04/07 12:59:17;;;;;;;;;;;1.80;77.40;;;;;;5055095;28;19920;-67
2021/04/07 13:01:42;;;;;;;;;;;1.60;78.80;;;;;;5051860;28;19919;-69
2021/04/07 13:04:10;;;;;;;;;;;1.50;79.90;;;;;;5052392;28;19916;-68
2021/04/07 13:06:36;;;;;;;;;;;1.50;80.40;;;;;;5053252;28;19924;-68
2021/04/07 13:09:04;;;;;;;;;;;1.30;79.90;;;;;;5053605;28;19921;-67
2021/04/07 13:11:30;;;;;;;;;;;1.10;81.10;;;;;;5050773;28;19916;-67
2021/04/07 13:13:56;;;;;;;;;;;1.00;83.10;;;;;;5055889;28;19913;-69
2021/04/07 13:16:21;;;;;;;;;;;1.10;82.70;;;;;;5051966;28;19947;-69
2021/04/07 13:18:53;;;;;;;;;;;1.10;82.20;;;;;;5055073;28;19998;-69
2021/04/07 13:21:18;;;;;;;;;;;1.40;81.60;;;;;;5050882;28;19920;-67
2021/04/07 13:23:45;;;;;;;;;;;1.50;81.50;;;;;;5053230;28;20460;-69
2021/04/07 13:26:11;;;;;;;;;;;1.70;81.20;;;;;;5054035;28;19975;-67
2021/04/07 13:28:39;;;;;;;;;;;1.50;80.10;;;;;;5087089;28;19921;-68
2021/04/07 13:31:05;;;;;;;;;;;1.40;80.10;;;;;;5050555;28;19927;-67
2021/04/07 13:36:12;;;;;;;;;;;1.50;80.40;;;;;;5050943;28;19917;-69
2021/04/07 13:43:52;;;;;;;;;;;1.30;81.10;;;;;;5035618;28;20265;-68
2021/04/07 13:46:18;;;;;;;;;;;1.10;81.40;;;;;;5031297;28;19917;-68
2021/04/07 13:48:44;;;;;;;;;;;1.10;82.40;;;;;;5043370;28;19924;-69
2021/04/07 13:51:11;;;;;;;;;;;1.20;82.10;;;;;;5055290;28;19913;-68
2021/04/07 13:53:37;;;;;;;;;;;1.20;81.30;;;;;;5075134;28;19913;-67
2021/04/07 13:56:18;;;;;;;;;;;1.10;80.50;;;;;;5040156;28;19913;-67
2021/04/07 13:58:50;;;;;;;;;;;1.10;81.60;;;;;;5039552;28;20000;-67
2021/04/07 14:01:15;;;;;;;;;;;1.10;81.90;;;;;;5045968;28;20316;-67
2021/04/07 14:03:41;;;;;;;;;;;0.90;83.30;;;;;;5053702;28;20043;-67
2021/04/07 14:06:08;;;;;;;;;;;0.80;83.30;;;;;;5055452;28;20054;-68
2021/04/07 14:08:42;;;;;;;;;;;0.80;83.50;;;;;;5050567;28;19939;-69
2021/04/07 14:11:09;;;;;;;;;;;0.90;83.50;;;;;;5036063;28;19921;-68
2021/04/07 14:13:37;;;;;;;;;;;1.00;83.30;;;;;;5036721;28;19919;-68
2021/04/07 14:16:04;;;;;;;;;;;1.10;83.80;;;;;;5051012;28;19921;-69
2021/04/07 14:18:29;;;;;;;;;;;1.20;84.10;;;;;;5049585;28;19974;-69
2021/04/07 14:20:57;;;;;;;;;;;1.40;83.40;;;;;;5051875;28;20498;-68
2021/04/07 14:23:30;;;;;;;;;;;1.50;82.60;;;;;;5051697;28;20199;-69
2021/04/07 14:25:59;;;;;;;;;;;1.60;81.80;;;;;;5054129;28;20004;-69
2021/04/07 14:28:25;;;;;;;;;;;1.20;81.50;;;;;;5045219;28;19972;-69
2021/04/07 14:30:51;;;;;;;;;;;1.00;82.70;;;;;;5048387;28;19947;-67
2021/04/07 14:33:18;;;;;;;;;;;1.00;83.00;;;;;;5054402;28;20039;-69
2021/04/07 14:35:45;;;;;;;;;;;1.00;83.20;;;;;;5055234;28;19942;-69